sensor_id;sensor_type;location;lat;lon;timestamp;P1;durP1;ratioP1;P2;durP2;ratioP2
50225;SDS011;36113;50.742;6.432;2022-09-20T00:00:46;3.80;;;2.55;;
50225;SDS011;36113;50.742;6.432;2022-09-20T00:03:13;5.93;;;2.00;;
50225;SDS011;36113;50.742;6.432;2022-09-20T00:05:41;7.03;;;2.03;;
50225;SDS011;36113;50.742;6.432;2022-09-20T00:08:12;6.93;;;1.60;;
50225;SDS011;36113;50.742;6.432;2022-09-20T00:10:39;7.07;;;1.98;;
50225;SDS011;36113;50.742;6.432;2022-09-20T00:13:08;4.30;;;1.83;;
50225;SDS011;36113;50.742;6.432;2022-09-20T00:15:39;7.32;;;2.00;;
50225;SDS011;36113;50.742;6.432;2022-09-20T00:18:05;4.55;;;1.58;;
50225;SDS011;36113;50.742;6.432;2022-09-20T00:20:30;6.57;;;1.73;;
50225;SDS011;36113;50.742;6.432;2022-09-20T00:22:55;5.45;;;2.20;;
50225;SDS011;36113;50.742;6.432;2022-09-20T00:25:21;5.65;;;2.28;;
50225;SDS011;36113;50.742;6.432;2022-09-20T00:27:46;4.68;;;2.30;;
50225;SDS011;36113;50.742;6.432;2022-09-20T00:30:12;5.00;;;2.60;;
50225;SDS011;36113;50.742;6.432;2022-09-20T00:32:37;8.30;;;2.78;;
50225;SDS011;36113;50.742;6.432;2022-09-20T00:35:03;4.83;;;2.77;;
50225;SDS011;36113;50.742;6.432;2022-09-20T00:37:35;6.30;;;3.30;;
50225;SDS011;36113;50.742;6.432;2022-09-20T00:40:03;8.70;;;3.28;;
50225;SDS011;36113;50.742;6.432;2022-09-20T00:47:33;5.47;;;3.20;;
50225;SDS011;36113;50.742;6.432;2022-09-20T00:52:50;8.95;;;3.80;;
50225;SDS011;36113;50.742;6.432;2022-09-20T00:55:22;7.72;;;4.22;;
50225;SDS011;36113;50.742;6.432;2022-09-20T00:57:48;7.23;;;4.30;;
50225;SDS011;36113;50.742;6.432;2022-09-20T01:00:14;5.03;;;4.53;;
50225;SDS011;36113;50.742;6.432;2022-09-20T01:02:40;5.50;;;3.92;;
50225;SDS011;36113;50.742;6.432;2022-09-20T01:05:11;5.65;;;3.80;;
50225;SDS011;36113;50.742;6.432;2022-09-20T01:07:39;11.75;;;5.25;;
50225;SDS011;36113;50.742;6.432;2022-09-20T01:10:06;8.65;;;4.70;;
50225;SDS011;36113;50.742;6.432;2022-09-20T01:12:32;6.15;;;5.00;;
50225;SDS011;36113;50.742;6.432;2022-09-20T01:17:26;6.93;;;5.10;;
50225;SDS011;36113;50.742;6.432;2022-09-20T01:27:54;7.00;;;5.63;;
50225;SDS011;36113;50.742;6.432;2022-09-20T01:30:23;9.68;;;5.15;;
50225;SDS011;36113;50.742;6.432;2022-09-20T01:35:36;9.80;;;5.45;;
50225;SDS011;36113;50.742;6.432;2022-09-20T01:41:03;6.70;;;5.53;;
50225;SDS011;36113;50.742;6.432;2022-09-20T01:46:40;8.02;;;4.10;;
50225;SDS011;36113;50.742;6.432;2022-09-20T01:49:19;6.97;;;3.90;;
50225;SDS011;36113;50.742;6.432;2022-09-20T01:54:58;5.72;;;4.32;;
50225;SDS011;36113;50.742;6.432;2022-09-20T02:11:41;8.43;;;4.47;;
50225;SDS011;36113;50.742;6.432;2022-09-20T02:20:06;5.65;;;4.07;;
50225;SDS011;36113;50.742;6.432;2022-09-20T02:22:52;7.40;;;4.43;;
50225;SDS011;36113;50.742;6.432;2022-09-20T02:25:39;9.17;;;4.20;;
50225;SDS011;36113;50.742;6.432;2022-09-20T02:30:48;5.93;;;3.78;;
50225;SDS011;36113;50.742;6.432;2022-09-20T02:41:23;5.07;;;3.63;;
50225;SDS011;36113;50.742;6.432;2022-09-20T02:43:59;7.50;;;3.70;;
50225;SDS011;36113;50.742;6.432;2022-09-20T02:49:40;5.40;;;4.05;;
50225;SDS011;36113;50.742;6.432;2022-09-20T02:54:59;5.57;;;4.00;;
50225;SDS011;36113;50.742;6.432;2022-09-20T03:03:12;5.80;;;3.95;;
50225;SDS011;36113;50.742;6.432;2022-09-20T03:05:50;7.50;;;3.25;;
50225;SDS011;36113;50.742;6.432;2022-09-20T03:08:38;12.85;;;4.20;;
50225;SDS011;36113;50.742;6.432;2022-09-20T03:11:28;8.50;;;3.95;;
50225;SDS011;36113;50.742;6.432;2022-09-20T03:14:19;9.18;;;3.97;;
50225;SDS011;36113;50.742;6.432;2022-09-20T03:19:42;5.57;;;3.72;;
50225;SDS011;36113;50.742;6.432;2022-09-20T03:30:37;7.70;;;4.45;;
50225;SDS011;36113;50.742;6.432;2022-09-20T03:36:28;8.38;;;4.78;;
50225;SDS011;36113;50.742;6.432;2022-09-20T03:50:19;7.72;;;5.22;;
50225;SDS011;36113;50.742;6.432;2022-09-20T04:05:14;11.18;;;7.95;;
50225;SDS011;36113;50.742;6.432;2022-09-20T04:08:08;11.20;;;8.55;;
50225;SDS011;36113;50.742;6.432;2022-09-20T04:10:52;12.68;;;8.80;;
50225;SDS011;36113;50.742;6.432;2022-09-20T04:13:34;16.05;;;9.90;;
50225;SDS011;36113;50.742;6.432;2022-09-20T04:18:52;13.20;;;10.13;;
50225;SDS011;36113;50.742;6.432;2022-09-20T04:21:23;16.25;;;11.18;;
50225;SDS011;36113;50.742;6.432;2022-09-20T04:26:29;15.88;;;9.50;;
50225;SDS011;36113;50.742;6.432;2022-09-20T04:35:04;11.35;;;8.90;;
50225;SDS011;36113;50.742;6.432;2022-09-20T04:37:54;15.80;;;9.10;;
50225;SDS011;36113;50.742;6.432;2022-09-20T04:52:02;17.42;;;10.85;;
50225;SDS011;36113;50.742;6.432;2022-09-20T04:55:01;15.82;;;10.18;;
50225;SDS011;36113;50.742;6.432;2022-09-20T05:00:13;19.48;;;12.10;;
50225;SDS011;36113;50.742;6.432;2022-09-20T05:10:50;22.60;;;12.13;;
50225;SDS011;36113;50.742;6.432;2022-09-20T05:36:04;19.52;;;14.27;;
50225;SDS011;36113;50.742;6.432;2022-09-20T05:38:48;20.27;;;13.93;;
50225;SDS011;36113;50.742;6.432;2022-09-20T05:44:26;20.38;;;14.07;;
50225;SDS011;36113;50.742;6.432;2022-09-20T06:00:22;21.27;;;13.20;;
50225;SDS011;36113;50.742;6.432;2022-09-20T06:11:36;18.13;;;12.40;;
50225;SDS011;36113;50.742;6.432;2022-09-20T06:17:12;17.50;;;10.52;;
50225;SDS011;36113;50.742;6.432;2022-09-20T06:24:49;12.32;;;9.45;;
50225;SDS011;36113;50.742;6.432;2022-09-20T06:27:25;13.80;;;9.85;;
50225;SDS011;36113;50.742;6.432;2022-09-20T06:29:59;17.30;;;9.60;;
50225;SDS011;36113;50.742;6.432;2022-09-20T06:32:29;14.93;;;8.10;;
50225;SDS011;36113;50.742;6.432;2022-09-20T06:34:55;11.33;;;8.87;;
50225;SDS011;36113;50.742;6.432;2022-09-20T06:37:38;11.65;;;7.30;;
50225;SDS011;36113;50.742;6.432;2022-09-20T06:40:47;10.13;;;7.55;;
50225;SDS011;36113;50.742;6.432;2022-09-20T06:43:43;11.32;;;7.28;;
50225;SDS011;36113;50.742;6.432;2022-09-20T06:46:09;14.32;;;7.78;;
50225;SDS011;36113;50.742;6.432;2022-09-20T06:48:34;8.25;;;6.40;;
50225;SDS011;36113;50.742;6.432;2022-09-20T06:51:04;9.27;;;5.88;;
50225;SDS011;36113;50.742;6.432;2022-09-20T06:53:31;9.80;;;5.95;;
50225;SDS011;36113;50.742;6.432;2022-09-20T06:55:59;10.73;;;5.63;;
50225;SDS011;36113;50.742;6.432;2022-09-20T06:58:25;14.23;;;5.50;;
50225;SDS011;36113;50.742;6.432;2022-09-20T07:00:50;8.32;;;4.57;;
50225;SDS011;36113;50.742;6.432;2022-09-20T07:03:16;7.32;;;4.47;;
50225;SDS011;36113;50.742;6.432;2022-09-20T07:05:43;5.43;;;3.67;;
50225;SDS011;36113;50.742;6.432;2022-09-20T07:08:10;4.47;;;3.50;;
50225;SDS011;36113;50.742;6.432;2022-09-20T07:10:36;6.00;;;3.58;;
50225;SDS011;36113;50.742;6.432;2022-09-20T07:13:02;7.17;;;4.50;;
50225;SDS011;36113;50.742;6.432;2022-09-20T07:15:29;7.82;;;4.20;;
50225;SDS011;36113;50.742;6.432;2022-09-20T07:17:55;8.02;;;4.70;;
50225;SDS011;36113;50.742;6.432;2022-09-20T07:20:21;6.90;;;4.88;;
50225;SDS011;36113;50.742;6.432;2022-09-20T07:22:46;5.47;;;3.78;;
50225;SDS011;36113;50.742;6.432;2022-09-20T07:25:12;7.53;;;4.25;;
50225;SDS011;36113;50.742;6.432;2022-09-20T07:27:38;7.28;;;4.20;;
50225;SDS011;36113;50.742;6.432;2022-09-20T07:30:03;3.85;;;3.55;;
50225;SDS011;36113;50.742;6.432;2022-09-20T07:32:29;6.20;;;4.03;;
50225;SDS011;36113;50.742;6.432;2022-09-20T07:34:55;4.38;;;3.97;;
50225;SDS011;36113;50.742;6.432;2022-09-20T07:37:21;10.20;;;3.58;;
50225;SDS011;36113;50.742;6.432;2022-09-20T07:39:46;7.15;;;3.53;;
50225;SDS011;36113;50.742;6.432;2022-09-20T07:42:12;6.90;;;3.72;;
50225;SDS011;36113;50.742;6.432;2022-09-20T07:44:37;6.25;;;3.63;;
50225;SDS011;36113;50.742;6.432;2022-09-20T07:47:06;9.50;;;3.78;;
50225;SDS011;36113;50.742;6.432;2022-09-20T07:49:34;8.93;;;3.17;;
50225;SDS011;36113;50.742;6.432;2022-09-20T07:51:59;3.72;;;2.70;;
50225;SDS011;36113;50.742;6.432;2022-09-20T07:54:25;4.88;;;3.03;;
50225;SDS011;36113;50.742;6.432;2022-09-20T07:56:53;5.03;;;2.33;;
50225;SDS011;36113;50.742;6.432;2022-09-20T07:59:18;5.47;;;2.60;;
50225;SDS011;36113;50.742;6.432;2022-09-20T08:01:44;4.72;;;2.60;;
50225;SDS011;36113;50.742;6.432;2022-09-20T08:04:10;5.03;;;2.33;;
50225;SDS011;36113;50.742;6.432;2022-09-20T08:06:39;3.50;;;2.72;;
50225;SDS011;36113;50.742;6.432;2022-09-20T08:09:06;8.88;;;3.35;;
50225;SDS011;36113;50.742;6.432;2022-09-20T08:11:31;5.80;;;3.13;;
50225;SDS011;36113;50.742;6.432;2022-09-20T08:13:58;10.02;;;2.92;;
50225;SDS011;36113;50.742;6.432;2022-09-20T08:16:25;5.50;;;3.28;;
50225;SDS011;36113;50.742;6.432;2022-09-20T08:18:58;3.55;;;3.25;;
50225;SDS011;36113;50.742;6.432;2022-09-20T08:21:26;7.45;;;4.35;;
50225;SDS011;36113;50.742;6.432;2022-09-20T08:23:55;6.32;;;4.45;;
50225;SDS011;36113;50.742;6.432;2022-09-20T08:26:21;7.43;;;3.70;;
50225;SDS011;36113;50.742;6.432;2022-09-20T08:28:52;4.88;;;2.90;;
50225;SDS011;36113;50.742;6.432;2022-09-20T08:31:20;7.38;;;3.55;;
50225;SDS011;36113;50.742;6.432;2022-09-20T08:33:48;5.82;;;3.83;;
50225;SDS011;36113;50.742;6.432;2022-09-20T08:36:21;5.85;;;4.45;;
50225;SDS011;36113;50.742;6.432;2022-09-20T08:38:48;7.13;;;3.95;;
50225;SDS011;36113;50.742;6.432;2022-09-20T08:41:16;5.30;;;3.37;;
50225;SDS011;36113;50.742;6.432;2022-09-20T08:43:51;6.65;;;3.70;;
50225;SDS011;36113;50.742;6.432;2022-09-20T08:46:18;8.60;;;3.70;;
50225;SDS011;36113;50.742;6.432;2022-09-20T08:48:46;9.05;;;3.88;;
50225;SDS011;36113;50.742;6.432;2022-09-20T08:51:13;4.40;;;4.07;;
50225;SDS011;36113;50.742;6.432;2022-09-20T08:53:47;5.28;;;3.45;;
50225;SDS011;36113;50.742;6.432;2022-09-20T08:56:15;5.18;;;3.30;;
50225;SDS011;36113;50.742;6.432;2022-09-20T08:58:41;7.28;;;3.28;;
50225;SDS011;36113;50.742;6.432;2022-09-20T09:01:09;3.72;;;3.17;;
50225;SDS011;36113;50.742;6.432;2022-09-20T09:03:38;3.40;;;3.20;;
50225;SDS011;36113;50.742;6.432;2022-09-20T09:06:03;12.75;;;3.70;;
50225;SDS011;36113;50.742;6.432;2022-09-20T09:08:32;3.73;;;3.00;;
50225;SDS011;36113;50.742;6.432;2022-09-20T09:11:04;2.85;;;2.50;;
50225;SDS011;36113;50.742;6.432;2022-09-20T09:16:51;6.15;;;2.67;;
50225;SDS011;36113;50.742;6.432;2022-09-20T09:21:55;2.72;;;1.98;;
50225;SDS011;36113;50.742;6.432;2022-09-20T09:24:24;2.60;;;2.40;;
50225;SDS011;36113;50.742;6.432;2022-09-20T09:26:50;7.07;;;2.00;;
50225;SDS011;36113;50.742;6.432;2022-09-20T09:29:30;3.30;;;2.17;;
50225;SDS011;36113;50.742;6.432;2022-09-20T09:31:57;4.18;;;2.22;;
50225;SDS011;36113;50.742;6.432;2022-09-20T09:34:43;3.83;;;2.28;;
50225;SDS011;36113;50.742;6.432;2022-09-20T09:37:20;5.53;;;2.00;;
50225;SDS011;36113;50.742;6.432;2022-09-20T09:40:15;8.52;;;2.40;;
50225;SDS011;36113;50.742;6.432;2022-09-20T09:42:49;3.83;;;2.50;;
50225;SDS011;36113;50.742;6.432;2022-09-20T09:45:26;3.35;;;1.88;;
50225;SDS011;36113;50.742;6.432;2022-09-20T09:47:53;5.15;;;1.85;;
50225;SDS011;36113;50.742;6.432;2022-09-20T09:50:22;4.80;;;2.10;;
50225;SDS011;36113;50.742;6.432;2022-09-20T09:53:10;2.58;;;1.63;;
50225;SDS011;36113;50.742;6.432;2022-09-20T09:58:41;5.13;;;1.92;;
50225;SDS011;36113;50.742;6.432;2022-09-20T10:01:22;2.13;;;1.40;;
50225;SDS011;36113;50.742;6.432;2022-09-20T10:07:17;3.40;;;2.00;;
50225;SDS011;36113;50.742;6.432;2022-09-20T10:18:02;1.85;;;1.33;;
50225;SDS011;36113;50.742;6.432;2022-09-20T10:26:27;1.83;;;1.17;;
50225;SDS011;36113;50.742;6.432;2022-09-20T10:32:11;2.70;;;1.75;;
50225;SDS011;36113;50.742;6.432;2022-09-20T10:40:22;1.10;;;1.10;;
50225;SDS011;36113;50.742;6.432;2022-09-20T10:43:12;4.78;;;1.75;;
50225;SDS011;36113;50.742;6.432;2022-09-20T10:46:18;5.03;;;1.67;;
50225;SDS011;36113;50.742;6.432;2022-09-20T10:49:10;5.22;;;1.80;;
50225;SDS011;36113;50.742;6.432;2022-09-20T11:05:42;4.37;;;1.63;;
50225;SDS011;36113;50.742;6.432;2022-09-20T11:08:19;4.30;;;1.30;;
50225;SDS011;36113;50.742;6.432;2022-09-20T11:10:51;8.98;;;2.03;;
50225;SDS011;36113;50.742;6.432;2022-09-20T11:13:32;4.65;;;1.80;;
50225;SDS011;36113;50.742;6.432;2022-09-20T11:16:15;3.75;;;1.67;;
50225;SDS011;36113;50.742;6.432;2022-09-20T11:21:55;5.05;;;1.98;;
50225;SDS011;36113;50.742;6.432;2022-09-20T11:27:11;2.83;;;1.45;;
50225;SDS011;36113;50.742;6.432;2022-09-20T11:29:50;3.25;;;1.92;;
50225;SDS011;36113;50.742;6.432;2022-09-20T11:32:26;4.45;;;1.50;;
50225;SDS011;36113;50.742;6.432;2022-09-20T11:35:05;3.20;;;1.63;;
50225;SDS011;36113;50.742;6.432;2022-09-20T11:37:41;4.15;;;1.52;;
50225;SDS011;36113;50.742;6.432;2022-09-20T11:40:25;1.80;;;1.70;;
50225;SDS011;36113;50.742;6.432;2022-09-20T11:42:54;4.72;;;1.38;;
50225;SDS011;36113;50.742;6.432;2022-09-20T11:45:24;5.55;;;1.48;;
50225;SDS011;36113;50.742;6.432;2022-09-20T11:47:53;6.72;;;2.00;;
50225;SDS011;36113;50.742;6.432;2022-09-20T11:58:11;4.00;;;1.60;;
50225;SDS011;36113;50.742;6.432;2022-09-20T12:00:41;5.75;;;1.55;;
50225;SDS011;36113;50.742;6.432;2022-09-20T12:03:22;4.22;;;1.38;;
50225;SDS011;36113;50.742;6.432;2022-09-20T12:05:56;5.00;;;1.42;;
50225;SDS011;36113;50.742;6.432;2022-09-20T12:11:08;1.98;;;1.08;;
50225;SDS011;36113;50.742;6.432;2022-09-20T12:13:38;1.83;;;0.85;;
50225;SDS011;36113;50.742;6.432;2022-09-20T12:16:15;4.68;;;1.40;;
50225;SDS011;36113;50.742;6.432;2022-09-20T12:21:23;3.97;;;1.38;;
50225;SDS011;36113;50.742;6.432;2022-09-20T12:28:49;4.18;;;2.28;;
50225;SDS011;36113;50.742;6.432;2022-09-20T12:36:34;6.57;;;1.48;;
50225;SDS011;36113;50.742;6.432;2022-09-20T12:39:05;2.20;;;2.03;;
50225;SDS011;36113;50.742;6.432;2022-09-20T12:41:45;2.03;;;1.92;;
50225;SDS011;36113;50.742;6.432;2022-09-20T12:46:55;4.60;;;1.38;;
50225;SDS011;36113;50.742;6.432;2022-09-20T12:52:28;5.68;;;2.15;;
50225;SDS011;36113;50.742;6.432;2022-09-20T13:00:29;5.22;;;1.92;;
50225;SDS011;36113;50.742;6.432;2022-09-20T13:02:59;4.05;;;2.20;;
50225;SDS011;36113;50.742;6.432;2022-09-20T13:06:20;3.33;;;2.00;;
50225;SDS011;36113;50.742;6.432;2022-09-20T13:11:17;2.08;;;1.50;;
50225;SDS011;36113;50.742;6.432;2022-09-20T13:14:01;5.82;;;1.92;;
50225;SDS011;36113;50.742;6.432;2022-09-20T13:22:02;3.30;;;1.60;;
50225;SDS011;36113;50.742;6.432;2022-09-20T13:24:36;4.63;;;1.55;;
50225;SDS011;36113;50.742;6.432;2022-09-20T13:27:16;9.00;;;2.05;;
50225;SDS011;36113;50.742;6.432;2022-09-20T13:29:46;2.85;;;1.65;;
50225;SDS011;36113;50.742;6.432;2022-09-20T13:32:19;1.95;;;1.58;;
50225;SDS011;36113;50.742;6.432;2022-09-20T13:35:03;3.60;;;2.13;;
50225;SDS011;36113;50.742;6.432;2022-09-20T13:37:46;2.95;;;1.70;;
50225;SDS011;36113;50.742;6.432;2022-09-20T13:40:21;4.82;;;1.60;;
50225;SDS011;36113;50.742;6.432;2022-09-20T13:42:48;7.43;;;1.63;;
50225;SDS011;36113;50.742;6.432;2022-09-20T13:45:15;5.22;;;1.70;;
50225;SDS011;36113;50.742;6.432;2022-09-20T13:47:46;9.43;;;2.90;;
50225;SDS011;36113;50.742;6.432;2022-09-20T13:52:43;16.23;;;7.25;;
50225;SDS011;36113;50.742;6.432;2022-09-20T13:58:08;7.85;;;3.00;;
50225;SDS011;36113;50.742;6.432;2022-09-20T14:00:44;6.78;;;3.03;;
50225;SDS011;36113;50.742;6.432;2022-09-20T14:03:12;6.15;;;3.50;;
50225;SDS011;36113;50.742;6.432;2022-09-20T14:05:44;8.93;;;2.53;;
50225;SDS011;36113;50.742;6.432;2022-09-20T14:08:12;2.70;;;1.95;;
50225;SDS011;36113;50.742;6.432;2022-09-20T14:10:45;1.60;;;1.55;;
50225;SDS011;36113;50.742;6.432;2022-09-20T14:13:13;4.82;;;1.63;;
50225;SDS011;36113;50.742;6.432;2022-09-20T14:15:41;4.85;;;1.92;;
50225;SDS011;36113;50.742;6.432;2022-09-20T14:18:17;3.53;;;1.88;;
50225;SDS011;36113;50.742;6.432;2022-09-20T14:23:21;7.03;;;2.42;;
50225;SDS011;36113;50.742;6.432;2022-09-20T14:28:44;3.45;;;1.85;;
50225;SDS011;36113;50.742;6.432;2022-09-20T14:31:21;6.07;;;1.80;;
50225;SDS011;36113;50.742;6.432;2022-09-20T14:33:50;3.10;;;1.73;;
50225;SDS011;36113;50.742;6.432;2022-09-20T14:36:22;5.80;;;1.63;;
50225;SDS011;36113;50.742;6.432;2022-09-20T14:38:51;6.13;;;1.70;;
50225;SDS011;36113;50.742;6.432;2022-09-20T14:41:26;6.65;;;2.28;;
50225;SDS011;36113;50.742;6.432;2022-09-20T14:43:58;10.25;;;2.25;;
50225;SDS011;36113;50.742;6.432;2022-09-20T14:46:33;4.63;;;1.33;;
50225;SDS011;36113;50.742;6.432;2022-09-20T14:51:44;8.23;;;1.58;;
50225;SDS011;36113;50.742;6.432;2022-09-20T14:56:36;5.17;;;1.60;;
50225;SDS011;36113;50.742;6.432;2022-09-20T15:01:37;6.82;;;1.60;;
50225;SDS011;36113;50.742;6.432;2022-09-20T15:04:22;6.45;;;1.52;;
50225;SDS011;36113;50.742;6.432;2022-09-20T15:06:49;3.03;;;1.50;;
50225;SDS011;36113;50.742;6.432;2022-09-20T15:09:15;4.00;;;1.63;;
50225;SDS011;36113;50.742;6.432;2022-09-20T15:11:43;4.72;;;1.50;;
50225;SDS011;36113;50.742;6.432;2022-09-20T15:14:09;6.40;;;1.70;;
50225;SDS011;36113;50.742;6.432;2022-09-20T15:16:34;3.60;;;1.63;;
50225;SDS011;36113;50.742;6.432;2022-09-20T15:19:00;4.88;;;1.88;;
50225;SDS011;36113;50.742;6.432;2022-09-20T15:21:25;4.53;;;1.30;;
50225;SDS011;36113;50.742;6.432;2022-09-20T15:23:50;3.57;;;1.53;;
50225;SDS011;36113;50.742;6.432;2022-09-20T15:26:16;5.78;;;1.70;;
50225;SDS011;36113;50.742;6.432;2022-09-20T15:28:45;5.75;;;1.50;;
50225;SDS011;36113;50.742;6.432;2022-09-20T15:31:10;2.25;;;1.33;;
50225;SDS011;36113;50.742;6.432;2022-09-20T15:33:37;3.08;;;1.58;;
50225;SDS011;36113;50.742;6.432;2022-09-20T15:36:03;4.38;;;1.63;;
50225;SDS011;36113;50.742;6.432;2022-09-20T15:38:29;3.37;;;1.53;;
50225;SDS011;36113;50.742;6.432;2022-09-20T15:40:54;3.78;;;1.80;;
50225;SDS011;36113;50.742;6.432;2022-09-20T15:43:20;3.38;;;1.63;;
50225;SDS011;36113;50.742;6.432;2022-09-20T15:45:54;5.82;;;1.83;;
50225;SDS011;36113;50.742;6.432;2022-09-20T15:48:24;3.60;;;1.77;;
50225;SDS011;36113;50.742;6.432;2022-09-20T15:53:24;3.88;;;1.25;;
50225;SDS011;36113;50.742;6.432;2022-09-20T15:55:49;4.43;;;1.48;;
50225;SDS011;36113;50.742;6.432;2022-09-20T15:58:15;2.88;;;1.48;;
50225;SDS011;36113;50.742;6.432;2022-09-20T16:00:41;3.95;;;2.00;;
50225;SDS011;36113;50.742;6.432;2022-09-20T16:03:06;4.63;;;2.17;;
50225;SDS011;36113;50.742;6.432;2022-09-20T16:05:31;3.35;;;2.08;;
50225;SDS011;36113;50.742;6.432;2022-09-20T16:07:57;7.32;;;1.90;;
50225;SDS011;36113;50.742;6.432;2022-09-20T16:10:22;2.65;;;1.83;;
50225;SDS011;36113;50.742;6.432;2022-09-20T16:12:47;5.72;;;2.47;;
50225;SDS011;36113;50.742;6.432;2022-09-20T16:15:12;5.17;;;2.40;;
50225;SDS011;36113;50.742;6.432;2022-09-20T16:17:38;5.47;;;2.40;;
50225;SDS011;36113;50.742;6.432;2022-09-20T16:20:22;5.20;;;2.40;;
50225;SDS011;36113;50.742;6.432;2022-09-20T16:22:47;6.60;;;4.85;;
50225;SDS011;36113;50.742;6.432;2022-09-20T16:25:12;6.00;;;3.88;;
50225;SDS011;36113;50.742;6.432;2022-09-20T16:27:38;5.68;;;4.63;;
50225;SDS011;36113;50.742;6.432;2022-09-20T16:30:03;6.47;;;3.47;;
50225;SDS011;36113;50.742;6.432;2022-09-20T16:32:29;5.45;;;2.83;;
50225;SDS011;36113;50.742;6.432;2022-09-20T16:34:54;4.82;;;2.28;;
50225;SDS011;36113;50.742;6.432;2022-09-20T16:37:21;5.32;;;2.00;;
50225;SDS011;36113;50.742;6.432;2022-09-20T16:39:47;6.80;;;2.15;;
50225;SDS011;36113;50.742;6.432;2022-09-20T16:42:12;8.25;;;2.25;;
50225;SDS011;36113;50.742;6.432;2022-09-20T16:44:40;6.60;;;2.10;;
50225;SDS011;36113;50.742;6.432;2022-09-20T16:47:08;5.53;;;2.33;;
50225;SDS011;36113;50.742;6.432;2022-09-20T16:49:35;5.20;;;1.80;;
50225;SDS011;36113;50.742;6.432;2022-09-20T16:52:04;6.55;;;1.80;;
50225;SDS011;36113;50.742;6.432;2022-09-20T16:54:30;9.05;;;2.13;;
50225;SDS011;36113;50.742;6.432;2022-09-20T16:56:57;3.05;;;1.77;;
50225;SDS011;36113;50.742;6.432;2022-09-20T16:59:23;5.43;;;1.80;;
50225;SDS011;36113;50.742;6.432;2022-09-20T17:01:48;5.30;;;1.73;;
50225;SDS011;36113;50.742;6.432;2022-09-20T17:04:14;7.07;;;2.27;;
50225;SDS011;36113;50.742;6.432;2022-09-20T17:06:45;3.35;;;2.80;;
50225;SDS011;36113;50.742;6.432;2022-09-20T17:09:11;4.72;;;3.80;;
50225;SDS011;36113;50.742;6.432;2022-09-20T17:11:39;10.32;;;4.22;;
50225;SDS011;36113;50.742;6.432;2022-09-20T17:14:13;6.13;;;4.25;;
50225;SDS011;36113;50.742;6.432;2022-09-20T17:16:41;4.88;;;3.75;;
50225;SDS011;36113;50.742;6.432;2022-09-20T17:19:10;5.93;;;3.38;;
50225;SDS011;36113;50.742;6.432;2022-09-20T17:21:40;3.72;;;3.28;;
50225;SDS011;36113;50.742;6.432;2022-09-20T17:24:10;7.45;;;6.68;;
50225;SDS011;36113;50.742;6.432;2022-09-20T17:26:38;11.52;;;10.43;;
50225;SDS011;36113;50.742;6.432;2022-09-20T17:29:06;8.68;;;6.82;;
50225;SDS011;36113;50.742;6.432;2022-09-20T17:31:35;11.23;;;9.23;;
50225;SDS011;36113;50.742;6.432;2022-09-20T17:34:03;11.38;;;6.47;;
50225;SDS011;36113;50.742;6.432;2022-09-20T17:36:31;6.10;;;5.07;;
50225;SDS011;36113;50.742;6.432;2022-09-20T17:39:00;4.63;;;3.30;;
50225;SDS011;36113;50.742;6.432;2022-09-20T17:41:27;3.92;;;3.08;;
50225;SDS011;36113;50.742;6.432;2022-09-20T17:43:55;4.90;;;2.63;;
50225;SDS011;36113;50.742;6.432;2022-09-20T17:46:23;2.35;;;1.80;;
50225;SDS011;36113;50.742;6.432;2022-09-20T17:48:55;3.58;;;1.83;;
50225;SDS011;36113;50.742;6.432;2022-09-20T17:51:25;6.63;;;2.00;;
50225;SDS011;36113;50.742;6.432;2022-09-20T17:53:53;5.10;;;1.70;;
50225;SDS011;36113;50.742;6.432;2022-09-20T17:56:20;1.35;;;1.35;;
50225;SDS011;36113;50.742;6.432;2022-09-20T17:58:48;1.90;;;1.70;;
50225;SDS011;36113;50.742;6.432;2022-09-20T18:01:14;3.20;;;2.30;;
50225;SDS011;36113;50.742;6.432;2022-09-20T18:03:44;5.07;;;2.33;;
50225;SDS011;36113;50.742;6.432;2022-09-20T18:08:44;3.42;;;2.20;;
50225;SDS011;36113;50.742;6.432;2022-09-20T18:11:14;3.17;;;1.73;;
50225;SDS011;36113;50.742;6.432;2022-09-20T18:13:41;3.25;;;2.20;;
50225;SDS011;36113;50.742;6.432;2022-09-20T18:16:07;8.02;;;2.55;;
50225;SDS011;36113;50.742;6.432;2022-09-20T18:18:37;3.67;;;2.00;;
50225;SDS011;36113;50.742;6.432;2022-09-20T18:21:08;5.53;;;1.88;;
50225;SDS011;36113;50.742;6.432;2022-09-20T18:23:38;4.35;;;1.90;;
50225;SDS011;36113;50.742;6.432;2022-09-20T18:26:16;4.78;;;1.60;;
50225;SDS011;36113;50.742;6.432;2022-09-20T18:28:46;11.00;;;2.42;;
50225;SDS011;36113;50.742;6.432;2022-09-20T18:31:18;5.00;;;1.75;;
50225;SDS011;36113;50.742;6.432;2022-09-20T18:33:45;5.13;;;2.03;;
50225;SDS011;36113;50.742;6.432;2022-09-20T18:36:10;6.82;;;3.05;;
50225;SDS011;36113;50.742;6.432;2022-09-20T18:38:35;2.63;;;1.77;;
50225;SDS011;36113;50.742;6.432;2022-09-20T18:41:01;4.35;;;2.58;;
50225;SDS011;36113;50.742;6.432;2022-09-20T18:43:27;6.45;;;2.05;;
50225;SDS011;36113;50.742;6.432;2022-09-20T18:45:54;9.60;;;2.58;;
50225;SDS011;36113;50.742;6.432;2022-09-20T18:48:21;6.20;;;3.05;;
50225;SDS011;36113;50.742;6.432;2022-09-20T18:50:57;4.03;;;2.28;;
50225;SDS011;36113;50.742;6.432;2022-09-20T18:53:29;4.45;;;2.50;;
50225;SDS011;36113;50.742;6.432;2022-09-20T18:58:52;5.35;;;3.08;;
50225;SDS011;36113;50.742;6.432;2022-09-20T19:04:00;3.13;;;2.83;;
50225;SDS011;36113;50.742;6.432;2022-09-20T19:06:41;3.13;;;2.88;;
50225;SDS011;36113;50.742;6.432;2022-09-20T19:09:11;10.10;;;3.03;;
50225;SDS011;36113;50.742;6.432;2022-09-20T19:11:46;11.18;;;2.80;;
50225;SDS011;36113;50.742;6.432;2022-09-20T19:14:20;4.60;;;2.70;;
50225;SDS011;36113;50.742;6.432;2022-09-20T19:16:54;4.05;;;2.97;;
50225;SDS011;36113;50.742;6.432;2022-09-20T19:22:20;5.70;;;3.10;;
50225;SDS011;36113;50.742;6.432;2022-09-20T19:28:17;7.45;;;3.30;;
50225;SDS011;36113;50.742;6.432;2022-09-20T19:30:44;4.25;;;2.78;;
50225;SDS011;36113;50.742;6.432;2022-09-20T19:33:15;4.90;;;2.70;;
50225;SDS011;36113;50.742;6.432;2022-09-20T19:35:43;10.48;;;3.40;;
50225;SDS011;36113;50.742;6.432;2022-09-20T19:43:55;6.97;;;3.53;;
50225;SDS011;36113;50.742;6.432;2022-09-20T19:52:11;6.05;;;4.45;;
50225;SDS011;36113;50.742;6.432;2022-09-20T19:54:40;7.30;;;4.45;;
50225;SDS011;36113;50.742;6.432;2022-09-20T19:57:11;8.23;;;3.95;;
50225;SDS011;36113;50.742;6.432;2022-09-20T19:59:42;7.38;;;4.00;;
50225;SDS011;36113;50.742;6.432;2022-09-20T20:02:08;8.32;;;4.35;;
50225;SDS011;36113;50.742;6.432;2022-09-20T20:04:35;6.68;;;3.97;;
50225;SDS011;36113;50.742;6.432;2022-09-20T20:09:45;6.32;;;3.88;;
50225;SDS011;36113;50.742;6.432;2022-09-20T20:12:36;5.30;;;3.72;;
50225;SDS011;36113;50.742;6.432;2022-09-20T20:18:29;7.97;;;2.90;;
50225;SDS011;36113;50.742;6.432;2022-09-20T20:21:22;7.68;;;2.88;;
50225;SDS011;36113;50.742;6.432;2022-09-20T20:26:28;6.30;;;2.97;;
50225;SDS011;36113;50.742;6.432;2022-09-20T20:28:55;7.43;;;3.08;;
50225;SDS011;36113;50.742;6.432;2022-09-20T20:31:21;7.93;;;2.70;;
50225;SDS011;36113;50.742;6.432;2022-09-20T20:33:46;5.47;;;2.80;;
50225;SDS011;36113;50.742;6.432;2022-09-20T20:36:12;3.35;;;2.78;;
50225;SDS011;36113;50.742;6.432;2022-09-20T20:38:38;3.13;;;2.30;;
50225;SDS011;36113;50.742;6.432;2022-09-20T20:43:33;4.53;;;2.90;;
50225;SDS011;36113;50.742;6.432;2022-09-20T20:46:00;6.30;;;2.80;;
50225;SDS011;36113;50.742;6.432;2022-09-20T20:48:27;5.22;;;3.03;;
50225;SDS011;36113;50.742;6.432;2022-09-20T20:50:59;11.75;;;3.15;;
50225;SDS011;36113;50.742;6.432;2022-09-20T20:53:28;5.93;;;2.65;;
50225;SDS011;36113;50.742;6.432;2022-09-20T20:56:01;3.85;;;2.75;;
50225;SDS011;36113;50.742;6.432;2022-09-20T20:58:29;4.18;;;2.85;;
50225;SDS011;36113;50.742;6.432;2022-09-20T21:01:02;4.28;;;2.55;;
50225;SDS011;36113;50.742;6.432;2022-09-20T21:03:29;4.13;;;2.80;;